www.cux-wetter.de
Wetterdaten: Donnerstag, 01.11.2007
Datum Zeit Temp. A. Feuchte A. Luftdruck Regen Wind Richtung Richtung Sonnenschein Solar Taupunkt Windchill Windben
01.11.2007 00:02 11,4 C 92 % 1025,5 hPa 0,0 l/m 32,5 km/h (5 Bft) W 260 0 min 0 W/m 10,1 C 2,2 C 32,5 km/h (5 Bft)
01.11.2007 00:07 11,5 C 93 % 1025,5 hPa 0,0 l/m 31,3 km/h (5 Bft) W 260 0 min 0 W/m 10,4 C 2,5 C 31,3 km/h (5 Bft)
01.11.2007 00:12 11,5 C 93 % 1025,5 hPa 0,0 l/m 27,1 km/h (5 Bft) W 260 0 min 0 W/m 10,4 C 3,4 C 27,1 km/h (5 Bft)
01.11.2007 00:17 11,5 C 93 % 1025,5 hPa 0,0 l/m 31,9 km/h (5 Bft) W 260 0 min 0 W/m 10,4 C 2,4 C 31,9 km/h (5 Bft)
01.11.2007 00:22 11,4 C 93 % 1025,5 hPa 0,0 l/m 28,1 km/h (5 Bft) W-SW 255 0 min 0 W/m 10,3 C 3,0 C 28,1 km/h (5 Bft)
01.11.2007 00:27 11,4 C 93 % 1025,5 hPa 0,0 l/m 30,8 km/h (5 Bft) W 260 0 min 0 W/m 10,3 C 2,5 C 30,8 km/h (5 Bft)
01.11.2007 00:32 11,4 C 93 % 1025,5 hPa 0,0 l/m 23,2 km/h (4 Bft) W 260 0 min 0 W/m 10,3 C 4,2 C 23,2 km/h (4 Bft)
01.11.2007 00:37 11,4 C 93 % 1025,5 hPa 0,0 l/m 31,8 km/h (5 Bft) W 270 0 min 0 W/m 10,3 C 2,3 C 31,8 km/h (5 Bft)
01.11.2007 00:42 11,4 C 93 % 1025,5 hPa 0,0 l/m 26,0 km/h (4 Bft) W-SW 255 0 min 0 W/m 10,3 C 3,5 C 26,0 km/h (4 Bft)
01.11.2007 00:47 11,4 C 93 % 1025,5 hPa 0,0 l/m 29,3 km/h (5 Bft) W-SW 255 0 min 0 W/m 10,3 C 2,8 C 29,3 km/h (5 Bft)
01.11.2007 00:52 11,4 C 93 % 1024,5 hPa 0,0 l/m 30,2 km/h (5 Bft) W 270 0 min 0 W/m 10,3 C 2,6 C 30,2 km/h (5 Bft)
01.11.2007 00:57 11,4 C 93 % 1024,5 hPa 0,0 l/m 24,9 km/h (4 Bft) W 260 0 min 0 W/m 10,3 C 3,8 C 24,9 km/h (4 Bft)
01.11.2007 01:02 11,3 C 93 % 1024,5 hPa 0,0 l/m 29,2 km/h (5 Bft) W 260 0 min 0 W/m 10,2 C 2,6 C 29,2 km/h (5 Bft)
01.11.2007 01:07 11,3 C 93 % 1024,5 hPa 0,0 l/m 25,4 km/h (4 Bft) W-SW 255 0 min 0 W/m 10,2 C 3,5 C 25,4 km/h (4 Bft)
01.11.2007 01:12 11,3 C 93 % 1024,5 hPa 0,0 l/m 28,0 km/h (5 Bft) W-SW 255 0 min 0 W/m 10,2 C 2,9 C 28,0 km/h (5 Bft)
01.11.2007 01:17 11,3 C 93 % 1024,5 hPa 0,0 l/m 28,7 km/h (5 Bft) W-SW 255 0 min 0 W/m 10,2 C 2,8 C 28,7 km/h (5 Bft)
01.11.2007 01:22 11,3 C 93 % 1024,5 hPa 0,0 l/m 26,3 km/h (4 Bft) W 260 0 min 0 W/m 10,2 C 3,3 C 26,3 km/h (4 Bft)
01.11.2007 01:27 11,2 C 93 % 1024,5 hPa 0,0 l/m 24,2 km/h (4 Bft) W-SW 250 0 min 0 W/m 10,1 C 3,7 C 24,2 km/h (4 Bft)
01.11.2007 01:32 11,2 C 93 % 1024,5 hPa 0,0 l/m 30,1 km/h (5 Bft) W-SW 250 0 min 0 W/m 10,1 C 2,3 C 30,1 km/h (5 Bft)
01.11.2007 01:37 11,2 C 93 % 1024,5 hPa 0,0 l/m 29,5 km/h (5 Bft) W-SW 250 0 min 0 W/m 10,1 C 2,4 C 29,5 km/h (5 Bft)
01.11.2007 01:42 11,2 C 93 % 1024,5 hPa 0,0 l/m 25,5 km/h (4 Bft) W 265 0 min 0 W/m 10,1 C 3,3 C 25,5 km/h (4 Bft)
01.11.2007 01:47 11,2 C 93 % 1024,5 hPa 0,0 l/m 20,8 km/h (4 Bft) W-SW 250 0 min 0 W/m 10,1 C 4,6 C 20,8 km/h (4 Bft)
01.11.2007 01:52 11,1 C 93 % 1024,5 hPa 0,0 l/m 21,7 km/h (4 Bft) W 260 0 min 0 W/m 10,0 C 4,2 C 21,7 km/h (4 Bft)
01.11.2007 01:57 11,0 C 93 % 1024,5 hPa 0,0 l/m 27,1 km/h (5 Bft) W-SW 255 0 min 0 W/m 9,9 C 2,7 C 27,1 km/h (5 Bft)
01.11.2007 02:02 11,0 C 93 % 1024,5 hPa 0,0 l/m 24,0 km/h (4 Bft) W-SW 255 0 min 0 W/m 9,9 C 3,4 C 24,0 km/h (4 Bft)
01.11.2007 02:07 10,9 C 93 % 1024,5 hPa 0,0 l/m 24,3 km/h (4 Bft) W-SW 255 0 min 0 W/m 9,8 C 3,2 C 24,3 km/h (4 Bft)
01.11.2007 02:12 10,9 C 93 % 1024,5 hPa 0,0 l/m 27,8 km/h (5 Bft) W 260 0 min 0 W/m 9,8 C 2,4 C 27,8 km/h (5 Bft)
01.11.2007 02:17 11,0 C 93 % 1024,5 hPa 0,0 l/m 23,5 km/h (4 Bft) W-SW 250 0 min 0 W/m 9,9 C 3,6 C 23,5 km/h (4 Bft)
01.11.2007 02:22 11,0 C 93 % 1024,5 hPa 0,0 l/m 30,7 km/h (5 Bft) W-SW 255 0 min 0 W/m 9,9 C 1,9 C 30,7 km/h (5 Bft)
01.11.2007 02:27 11,0 C 93 % 1024,5 hPa 0,0 l/m 27,8 km/h (5 Bft) W-SW 255 0 min 0 W/m 9,9 C 2,5 C 27,8 km/h (5 Bft)
01.11.2007 02:32 11,0 C 93 % 1024,5 hPa 0,0 l/m 27,1 km/h (5 Bft) W 265 0 min 0 W/m 9,9 C 2,7 C 27,1 km/h (5 Bft)
01.11.2007 02:37 11,0 C 93 % 1024,5 hPa 0,0 l/m 28,0 km/h (5 Bft) W-SW 255 0 min 0 W/m 9,9 C 2,5 C 28,0 km/h (5 Bft)
01.11.2007 02:42 11,0 C 93 % 1024,5 hPa 0,0 l/m 28,1 km/h (5 Bft) W-SW 255 0 min 0 W/m 9,9 C 2,5 C 28,1 km/h (5 Bft)
01.11.2007 02:47 11,0 C 93 % 1024,5 hPa 0,0 l/m 27,4 km/h (5 Bft) W 260 0 min 0 W/m 9,9 C 2,6 C 27,4 km/h (5 Bft)
01.11.2007 02:52 11,0 C 93 % 1024,5 hPa 0,0 l/m 24,5 km/h (4 Bft) W 260 0 min 0 W/m 9,9 C 3,3 C 24,5 km/h (4 Bft)
01.11.2007 02:57 11,0 C 93 % 1024,5 hPa 0,0 l/m 23,3 km/h (4 Bft) W-SW 255 0 min 0 W/m 9,9 C 3,6 C 23,3 km/h (4 Bft)
01.11.2007 03:02 11,0 C 93 % 1024,5 hPa 0,0 l/m 26,1 km/h (4 Bft) W-SW 250 0 min 0 W/m 9,9 C 2,9 C 26,1 km/h (4 Bft)
01.11.2007 03:07 11,0 C 93 % 1024,5 hPa 0,0 l/m 27,2 km/h (5 Bft) W 260 0 min 0 W/m 9,9 C 2,7 C 27,2 km/h (5 Bft)
01.11.2007 03:12 11,1 C 93 % 1024,5 hPa 0,0 l/m 25,1 km/h (4 Bft) W 260 0 min 0 W/m 10,0 C 3,3 C 25,1 km/h (4 Bft)
01.11.2007 03:17 11,2 C 93 % 1024,5 hPa 0,0 l/m 29,6 km/h (5 Bft) W 265 0 min 0 W/m 10,1 C 2,4 C 29,6 km/h (5 Bft)
01.11.2007 03:22 11,2 C 93 % 1024,5 hPa 0,0 l/m 18,8 km/h (3 Bft) W-SW 255 0 min 0 W/m 10,1 C 5,2 C 18,8 km/h (3 Bft)
01.11.2007 03:27 11,2 C 92 % 1024,5 hPa 0,0 l/m 24,1 km/h (4 Bft) W 260 0 min 0 W/m 9,9 C 3,7 C 24,1 km/h (4 Bft)
01.11.2007 03:32 11,2 C 92 % 1024,5 hPa 0,0 l/m 25,3 km/h (4 Bft) W 260 0 min 0 W/m 9,9 C 3,4 C 25,3 km/h (4 Bft)
01.11.2007 03:37 11,2 C 92 % 1024,5 hPa 0,0 l/m 25,1 km/h (4 Bft) W 260 0 min 0 W/m 9,9 C 3,4 C 25,1 km/h (4 Bft)
01.11.2007 03:42 11,2 C 92 % 1024,5 hPa 0,0 l/m 25,3 km/h (4 Bft) W-SW 255 0 min 0 W/m 9,9 C 3,4 C 25,3 km/h (4 Bft)
01.11.2007 03:47 11,2 C 92 % 1024,5 hPa 0,0 l/m 22,7 km/h (4 Bft) W 260 0 min 0 W/m 9,9 C 4,1 C 22,7 km/h (4 Bft)
01.11.2007 03:52 11,2 C 92 % 1024,5 hPa 0,0 l/m 23,3 km/h (4 Bft) W 260 0 min 0 W/m 9,9 C 3,9 C 23,3 km/h (4 Bft)
01.11.2007 03:57 11,2 C 92 % 1024,5 hPa 0,0 l/m 31,5 km/h (5 Bft) W 260 0 min 0 W/m 9,9 C 2,1 C 31,5 km/h (5 Bft)
01.11.2007 04:02 11,2 C 92 % 1024,5 hPa 0,0 l/m 23,8 km/h (4 Bft) W 260 0 min 0 W/m 9,9 C 3,8 C 23,8 km/h (4 Bft)
01.11.2007 04:07 11,2 C 92 % 1024,5 hPa 0,0 l/m 22,5 km/h (4 Bft) W 260 0 min 0 W/m 9,9 C 4,1 C 22,5 km/h (4 Bft)
01.11.2007 04:12 11,2 C 92 % 1024,5 hPa 0,0 l/m 26,7 km/h (4 Bft) W 260 0 min 0 W/m 9,9 C 3,1 C 26,7 km/h (4 Bft)
01.11.2007 04:17 11,2 C 92 % 1024,5 hPa 0,0 l/m 21,3 km/h (4 Bft) W 260 0 min 0 W/m 9,9 C 4,4 C 21,3 km/h (4 Bft)
01.11.2007 04:22 11,2 C 92 % 1024,5 hPa 0,0 l/m 22,3 km/h (4 Bft) W 265 0 min 0 W/m 9,9 C 4,2 C 22,3 km/h (4 Bft)
01.11.2007 04:27 11,3 C 92 % 1024,5 hPa 0,0 l/m 25,0 km/h (4 Bft) W 260 0 min 0 W/m 10,0 C 3,6 C 25,0 km/h (4 Bft)
01.11.2007 04:32 11,3 C 92 % 1024,5 hPa 0,0 l/m 23,5 km/h (4 Bft) W 260 0 min 0 W/m 10,0 C 4,0 C 23,5 km/h (4 Bft)
01.11.2007 04:37 11,3 C 92 % 1024,5 hPa 0,0 l/m 23,3 km/h (4 Bft) W 260 0 min 0 W/m 10,0 C 4,0 C 23,3 km/h (4 Bft)
01.11.2007 04:42 11,3 C 92 % 1024,5 hPa 0,0 l/m 19,6 km/h (3 Bft) W 260 0 min 0 W/m 10,0 C 5,1 C 19,6 km/h (3 Bft)
01.11.2007 04:47 11,5 C 92 % 1024,5 hPa 0,0 l/m 23,1 km/h (4 Bft) W 260 0 min 0 W/m 10,2 C 4,3 C 23,1 km/h (4 Bft)
01.11.2007 04:52 11,6 C 90 % 1024,5 hPa 0,0 l/m 24,5 km/h (4 Bft) W 260 0 min 0 W/m 10,0 C 4,1 C 24,5 km/h (4 Bft)
01.11.2007 04:57 11,7 C 90 % 1024,5 hPa 0,0 l/m 20,6 km/h (4 Bft) W-SW 255 0 min 0 W/m 10,1 C 5,3 C 20,6 km/h (4 Bft)
01.11.2007 05:02 11,7 C 90 % 1024,5 hPa 0,0 l/m 25,0 km/h (4 Bft) W-SW 255 0 min 0 W/m 10,1 C 4,1 C 25,0 km/h (4 Bft)
01.11.2007 05:07 11,6 C 90 % 1024,5 hPa 0,0 l/m 23,9 km/h (4 Bft) W-SW 255 0 min 0 W/m 10,0 C 4,3 C 23,9 km/h (4 Bft)
01.11.2007 05:12 11,6 C 90 % 1024,5 hPa 0,0 l/m 23,8 km/h (4 Bft) W-SW 255 0 min 0 W/m 10,0 C 4,3 C 23,8 km/h (4 Bft)
01.11.2007 05:17 11,6 C 90 % 1024,5 hPa 0,0 l/m 28,1 km/h (5 Bft) W 260 0 min 0 W/m 10,0 C 3,3 C 28,1 km/h (5 Bft)
01.11.2007 05:22 11,6 C 90 % 1024,5 hPa 0,0 l/m 27,0 km/h (5 Bft) W-SW 250 0 min 0 W/m 10,0 C 3,5 C 27,0 km/h (5 Bft)
01.11.2007 05:27 11,7 C 89 % 1024,5 hPa 0,0 l/m 32,6 km/h (5 Bft) W-SW 255 0 min 0 W/m 9,9 C 2,6 C 32,6 km/h (5 Bft)
01.11.2007 05:32 11,7 C 89 % 1024,5 hPa 0,0 l/m 24,2 km/h (4 Bft) W 260 0 min 0 W/m 9,9 C 4,3 C 24,2 km/h (4 Bft)
01.11.2007 05:37 11,8 C 89 % 1024,5 hPa 0,0 l/m 27,6 km/h (5 Bft) W-SW 255 0 min 0 W/m 10,0 C 3,7 C 27,6 km/h (5 Bft)
01.11.2007 05:42 11,9 C 89 % 1024,5 hPa 0,0 l/m 29,1 km/h (5 Bft) W 265 0 min 0 W/m 10,1 C 3,5 C 29,1 km/h (5 Bft)
01.11.2007 05:47 11,9 C 89 % 1024,5 hPa 0,0 l/m 28,8 km/h (5 Bft) W 260 0 min 0 W/m 10,1 C 3,6 C 28,8 km/h (5 Bft)
01.11.2007 05:52 11,9 C 89 % 1024,5 hPa 0,0 l/m 28,5 km/h (5 Bft) W 260 0 min 0 W/m 10,1 C 3,6 C 28,5 km/h (5 Bft)
01.11.2007 05:57 11,9 C 89 % 1024,5 hPa 0,0 l/m 27,6 km/h (5 Bft) W-SW 255 0 min 0 W/m 10,1 C 3,8 C 27,6 km/h (5 Bft)
01.11.2007 06:02 12,0 C 89 % 1024,5 hPa 0,0 l/m 28,2 km/h (5 Bft) W 260 0 min 0 W/m 10,2 C 3,8 C 28,2 km/h (5 Bft)
01.11.2007 06:07 12,0 C 89 % 1024,5 hPa 0,0 l/m 27,8 km/h (5 Bft) W 265 0 min 0 W/m 10,2 C 3,9 C 27,8 km/h (5 Bft)
01.11.2007 06:12 12,0 C 89 % 1024,5 hPa 0,0 l/m 25,1 km/h (4 Bft) W-SW 255 0 min 0 W/m 10,2 C 4,5 C 25,1 km/h (4 Bft)
01.11.2007 06:17 12,0 C 89 % 1024,5 hPa 0,0 l/m 31,0 km/h (5 Bft) W 265 0 min 0 W/m 10,2 C 3,3 C 31,0 km/h (5 Bft)
01.11.2007 06:22 12,0 C 89 % 1024,5 hPa 0,0 l/m 27,5 km/h (5 Bft) W 265 0 min 0 W/m 10,2 C 4,0 C 27,5 km/h (5 Bft)
01.11.2007 06:27 12,0 C 89 % 1024,5 hPa 0,0 l/m 26,5 km/h (4 Bft) W-SW 255 0 min 0 W/m 10,2 C 4,2 C 26,5 km/h (4 Bft)
01.11.2007 06:32 12,0 C 89 % 1024,5 hPa 0,0 l/m 29,5 km/h (5 Bft) W 260 0 min 0 W/m 10,2 C 3,6 C 29,5 km/h (5 Bft)
01.11.2007 06:37 12,0 C 89 % 1024,5 hPa 0,0 l/m 30,4 km/h (5 Bft) W-SW 255 0 min 0 W/m 10,2 C 3,4 C 30,4 km/h (5 Bft)
01.11.2007 06:42 11,9 C 89 % 1024,5 hPa 0,0 l/m 25,7 km/h (4 Bft) W-SW 255 0 min 0 W/m 10,1 C 4,2 C 25,7 km/h (4 Bft)
01.11.2007 06:47 11,9 C 89 % 1024,5 hPa 0,0 l/m 29,0 km/h (5 Bft) W-SW 255 0 min 0 W/m 10,1 C 3,5 C 29,0 km/h (5 Bft)
01.11.2007 06:52 11,9 C 89 % 1024,5 hPa 0,0 l/m 28,6 km/h (5 Bft) W 265 0 min 0 W/m 10,1 C 3,6 C 28,6 km/h (5 Bft)
01.11.2007 06:57 11,9 C 89 % 1024,5 hPa 0,0 l/m 28,0 km/h (5 Bft) W 260 0 min 0 W/m 10,1 C 3,7 C 28,0 km/h (5 Bft)
01.11.2007 07:02 11,9 C 89 % 1024,5 hPa 0,0 l/m 30,0 km/h (5 Bft) W 260 0 min 0 W/m 10,1 C 3,3 C 30,0 km/h (5 Bft)
01.11.2007 07:07 11,9 C 89 % 1024,5 hPa 0,0 l/m 26,8 km/h (4 Bft) W 265 0 min 0 W/m 10,1 C 4,0 C 26,8 km/h (4 Bft)
01.11.2007 07:12 11,9 C 89 % 1024,5 hPa 0,0 l/m 26,6 km/h (4 Bft) W 260 0 min 0 W/m 10,1 C 4,0 C 26,6 km/h (4 Bft)
01.11.2007 07:17 12,0 C 90 % 1024,5 hPa 0,0 l/m 30,3 km/h (5 Bft) W 265 0 min 0 W/m 10,4 C 3,4 C 30,3 km/h (5 Bft)
01.11.2007 07:22 12,0 C 90 % 1024,5 hPa 0,0 l/m 26,1 km/h (4 Bft) W 265 0 min 0 W/m 10,4 C 4,3 C 26,1 km/h (4 Bft)
01.11.2007 07:27 12,0 C 89 % 1024,5 hPa 0,0 l/m 33,5 km/h (5 Bft) W 265 0 min 0 W/m 10,2 C 2,8 C 33,5 km/h (5 Bft)
01.11.2007 07:32 12,0 C 89 % 1024,5 hPa 0,0 l/m 26,3 km/h (4 Bft) W 260 0 min 0 W/m 10,2 C 4,2 C 26,3 km/h (4 Bft)
01.11.2007 07:37 12,0 C 89 % 1024,5 hPa 0,0 l/m 32,0 km/h (5 Bft) W 260 0 min 0 W/m 10,2 C 3,1 C 32,0 km/h (5 Bft)
01.11.2007 07:42 12,0 C 90 % 1024,5 hPa 0,0 l/m 31,0 km/h (5 Bft) W-SW 255 0 min 0 W/m 10,4 C 3,3 C 31,0 km/h (5 Bft)
01.11.2007 07:47 12,0 C 89 % 1024,5 hPa 0,0 l/m 29,6 km/h (5 Bft) W-SW 255 0 min 0 W/m 10,2 C 3,5 C 29,6 km/h (5 Bft)
01.11.2007 07:52 12,0 C 90 % 1024,5 hPa 0,0 l/m 29,5 km/h (5 Bft) W 260 0 min 0 W/m 10,4 C 3,6 C 29,5 km/h (5 Bft)
01.11.2007 07:57 12,0 C 90 % 1024,5 hPa 0,0 l/m 29,5 km/h (5 Bft) W 260 0 min 0 W/m 10,4 C 3,6 C 29,5 km/h (5 Bft)
01.11.2007 08:02 12,0 C 90 % 1024,5 hPa 0,0 l/m 27,0 km/h (5 Bft) W 260 0 min 0 W/m 10,4 C 4,1 C 27,0 km/h (5 Bft)
01.11.2007 08:07 12,0 C 90 % 1024,5 hPa 0,0 l/m 28,3 km/h (5 Bft) W-SW 255 0 min 0 W/m 10,4 C 3,8 C 28,3 km/h (5 Bft)
01.11.2007 08:12 11,9 C 89 % 1024,5 hPa 0,0 l/m 24,0 km/h (4 Bft) W 260 0 min 0 W/m 10,1 C 4,7 C 24,0 km/h (4 Bft)
01.11.2007 08:17 11,9 C 90 % 1024,5 hPa 0,0 l/m 27,6 km/h (5 Bft) W 260 0 min 0 W/m 10,3 C 3,8 C 27,6 km/h (5 Bft)
01.11.2007 08:22 11,8 C 90 % 1024,5 hPa 0,0 l/m 26,3 km/h (4 Bft) W 260 0 min 0 W/m 10,2 C 4,0 C 26,3 km/h (4 Bft)
01.11.2007 08:27 11,9 C 90 % 1024,5 hPa 0,0 l/m 25,5 km/h (4 Bft) W 260 0 min 0 W/m 10,3 C 4,3 C 25,5 km/h (4 Bft)
01.11.2007 08:32 11,9 C 90 % 1024,5 hPa 0,0 l/m 27,1 km/h (5 Bft) W 260 0 min 0 W/m 10,3 C 3,9 C 27,1 km/h (5 Bft)
01.11.2007 08:37 11,9 C 90 % 1024,5 hPa 0,0 l/m 25,6 km/h (4 Bft) W 260 0 min 0 W/m 10,3 C 4,3 C 25,6 km/h (4 Bft)
01.11.2007 08:42 12,0 C 90 % 1024,5 hPa 0,0 l/m 22,0 km/h (4 Bft) W 260 0 min 0 W/m 10,4 C 5,3 C 22,0 km/h (4 Bft)
01.11.2007 08:47 12,0 C 90 % 1024,5 hPa 0,0 l/m 28,7 km/h (5 Bft) W 260 0 min 0 W/m 10,4 C 3,7 C 28,7 km/h (5 Bft)
01.11.2007 08:52 12,0 C 90 % 1024,5 hPa 0,0 l/m 23,0 km/h (4 Bft) W 270 0 min 0 W/m 10,4 C 5,0 C 23,0 km/h (4 Bft)
01.11.2007 08:57 12,0 C 90 % 1024,5 hPa 0,0 l/m 28,8 km/h (5 Bft) W 265 0 min 0 W/m 10,4 C 3,7 C 28,8 km/h (5 Bft)
01.11.2007 09:02 12,1 C 90 % 1024,5 hPa 0,0 l/m 25,6 km/h (4 Bft) W 265 0 min 0 W/m 10,5 C 4,5 C 25,6 km/h (4 Bft)
01.11.2007 09:07 12,1 C 90 % 1024,5 hPa 0,0 l/m 28,0 km/h (5 Bft) W 270 0 min 0 W/m 10,5 C 4,0 C 28,0 km/h (5 Bft)
01.11.2007 09:12 12,1 C 90 % 1024,5 hPa 0,0 l/m 29,8 km/h (5 Bft) W 260 0 min 0 W/m 10,5 C 3,6 C 29,8 km/h (5 Bft)
01.11.2007 09:17 12,2 C 89 % 1024,5 hPa 0,0 l/m 32,1 km/h (5 Bft) W 265 0 min 0 W/m 10,4 C 3,4 C 32,1 km/h (5 Bft)
01.11.2007 09:22 12,2 C 89 % 1024,5 hPa 0,0 l/m 26,5 km/h (4 Bft) W 265 0 min 0 W/m 10,4 C 4,5 C 26,5 km/h (4 Bft)
01.11.2007 09:27 12,3 C 89 % 1024,5 hPa 0,0 l/m 23,6 km/h (4 Bft) W 275 0 min 0 W/m 10,5 C 5,3 C 23,6 km/h (4 Bft)
01.11.2007 09:32 12,4 C 89 % 1024,5 hPa 0,0 l/m 27,2 km/h (5 Bft) W 270 0 min 0 W/m 10,6 C 4,6 C 27,2 km/h (5 Bft)
01.11.2007 09:37 12,3 C 89 % 1024,5 hPa 0,0 l/m 22,5 km/h (4 Bft) W 265 0 min 0 W/m 10,5 C 5,6 C 22,5 km/h (4 Bft)
01.11.2007 09:42 12,4 C 89 % 1025,5 hPa 0,0 l/m 25,5 km/h (4 Bft) W 265 0 min 0 W/m 10,6 C 5,0 C 25,5 km/h (4 Bft)
01.11.2007 09:47 12,4 C 89 % 1025,5 hPa 0,0 l/m 29,6 km/h (5 Bft) W 270 0 min 0 W/m 10,6 C 4,1 C 29,6 km/h (5 Bft)
01.11.2007 09:52 12,4 C 89 % 1025,5 hPa 0,0 l/m 27,0 km/h (5 Bft) W 265 0 min 0 W/m 10,6 C 4,6 C 27,0 km/h (5 Bft)
01.11.2007 09:57 12,4 C 89 % 1025,5 hPa 0,0 l/m 23,4 km/h (4 Bft) W 270 0 min 0 W/m 10,6 C 5,5 C 23,4 km/h (4 Bft)
01.11.2007 10:02 12,5 C 89 % 1025,5 hPa 0,0 l/m 32,2 km/h (5 Bft) W 265 0 min 0 W/m 10,7 C 3,8 C 32,2 km/h (5 Bft)
01.11.2007 10:07 12,5 C 89 % 1025,5 hPa 0,0 l/m 28,8 km/h (5 Bft) W 265 0 min 0 W/m 10,7 C 4,4 C 28,8 km/h (5 Bft)
01.11.2007 10:12 12,5 C 89 % 1025,5 hPa 0,0 l/m 29,4 km/h (5 Bft) W 265 0 min 0 W/m 10,7 C 4,3 C 29,4 km/h (5 Bft)
01.11.2007 10:17 12,5 C 89 % 1025,5 hPa 0,0 l/m 31,1 km/h (5 Bft) W 270 0 min 0 W/m 10,7 C 4,0 C 31,1 km/h (5 Bft)
01.11.2007 10:22 12,6 C 89 % 1025,5 hPa 0,0 l/m 23,3 km/h (4 Bft) W 265 0 min 0 W/m 10,8 C 5,8 C 23,3 km/h (4 Bft)
01.11.2007 10:27 12,6 C 89 % 1025,5 hPa 0,0 l/m 20,5 km/h (4 Bft) W 260 0 min 0 W/m 10,8 C 6,5 C 20,5 km/h (4 Bft)
01.11.2007 10:32 12,7 C 89 % 1025,5 hPa 0,0 l/m 27,1 km/h (5 Bft) W 270 0 min 0 W/m 10,9 C 5,0 C 27,1 km/h (5 Bft)
01.11.2007 10:37 12,7 C 89 % 1025,5 hPa 0,0 l/m 24,7 km/h (4 Bft) W 265 0 min 0 W/m 10,9 C 5,6 C 24,7 km/h (4 Bft)
01.11.2007 10:42 12,7 C 89 % 1025,5 hPa 0,0 l/m 28,2 km/h (5 Bft) W 270 0 min 0 W/m 10,9 C 4,8 C 28,2 km/h (5 Bft)
01.11.2007 10:47 12,7 C 89 % 1025,5 hPa 0,0 l/m 25,0 km/h (4 Bft) W 265 0 min 0 W/m 10,9 C 5,5 C 25,0 km/h (4 Bft)
01.11.2007 10:52 12,7 C 89 % 1025,5 hPa 0,0 l/m 25,0 km/h (4 Bft) W 275 0 min 0 W/m 10,9 C 5,5 C 25,0 km/h (4 Bft)
01.11.2007 10:57 12,8 C 89 % 1025,5 hPa 0,0 l/m 25,5 km/h (4 Bft) W 265 0 min 0 W/m 11,0 C 5,5 C 25,5 km/h (4 Bft)
01.11.2007 11:02 12,9 C 89 % 1025,5 hPa 0,0 l/m 28,0 km/h (5 Bft) W 270 0 min 0 W/m 11,1 C 5,1 C 28,0 km/h (5 Bft)
01.11.2007 11:07 12,9 C 89 % 1025,5 hPa 0,0 l/m 28,0 km/h (5 Bft) W 265 0 min 0 W/m 11,1 C 5,1 C 28,0 km/h (5 Bft)
01.11.2007 11:12 12,8 C 89 % 1025,5 hPa 0,0 l/m 25,9 km/h (4 Bft) W 270 0 min 0 W/m 11,0 C 5,4 C 25,9 km/h (4 Bft)
01.11.2007 11:17 12,8 C 90 % 1025,5 hPa 0,0 l/m 28,1 km/h (5 Bft) W 260 0 min 0 W/m 11,2 C 5,0 C 28,1 km/h (5 Bft)
01.11.2007 11:22 12,8 C 90 % 1024,5 hPa 0,0 l/m 25,0 km/h (4 Bft) W 265 0 min 0 W/m 11,2 C 5,6 C 25,0 km/h (4 Bft)
01.11.2007 11:27 12,9 C 90 % 1024,5 hPa 0,0 l/m 30,7 km/h (5 Bft) W 265 0 min 0 W/m 11,3 C 4,6 C 30,7 km/h (5 Bft)
01.11.2007 11:32 13,0 C 90 % 1024,5 hPa 0,0 l/m 27,6 km/h (5 Bft) W 270 0 min 0 W/m 11,4 C 5,3 C 27,6 km/h (5 Bft)
01.11.2007 11:37 13,0 C 90 % 1024,5 hPa 0,0 l/m 21,5 km/h (4 Bft) W 270 0 min 0 W/m 11,4 C 6,8 C 21,5 km/h (4 Bft)
01.11.2007 11:42 13,0 C 90 % 1024,5 hPa 0,0 l/m 25,6 km/h (4 Bft) W 270 0 min 0 W/m 11,4 C 5,8 C 25,6 km/h (4 Bft)
01.11.2007 11:47 13,0 C 90 % 1024,5 hPa 0,0 l/m 25,7 km/h (4 Bft) W 265 0 min 0 W/m 11,4 C 5,7 C 25,7 km/h (4 Bft)
01.11.2007 11:52 13,0 C 90 % 1024,5 hPa 0,0 l/m 25,7 km/h (4 Bft) W 265 0 min 0 W/m 11,4 C 5,7 C 25,7 km/h (4 Bft)
01.11.2007 11:57 13,0 C 90 % 1024,5 hPa 0,0 l/m 25,2 km/h (4 Bft) W 275 0 min 0 W/m 11,4 C 5,9 C 25,2 km/h (4 Bft)
01.11.2007 12:02 13,0 C 90 % 1025,5 hPa 0,0 l/m 22,5 km/h (4 Bft) W 265 0 min 0 W/m 11,4 C 6,5 C 22,5 km/h (4 Bft)
01.11.2007 12:07 13,0 C 91 % 1025,5 hPa 0,0 l/m 23,5 km/h (4 Bft) W 270 0 min 0 W/m 11,6 C 6,2 C 23,5 km/h (4 Bft)
01.11.2007 12:12 13,0 C 91 % 1025,5 hPa 0,0 l/m 25,4 km/h (4 Bft) W 270 0 min 0 W/m 11,6 C 5,8 C 25,4 km/h (4 Bft)
01.11.2007 12:17 12,8 C 91 % 1025,5 hPa 0,0 l/m 19,5 km/h (3 Bft) W 265 0 min 0 W/m 11,4 C 7,0 C 19,5 km/h (3 Bft)
01.11.2007 12:22 12,9 C 91 % 1025,5 hPa 0,0 l/m 24,4 km/h (4 Bft) W 275 0 min 0 W/m 11,5 C 5,9 C 24,4 km/h (4 Bft)
01.11.2007 12:27 12,9 C 91 % 1025,5 hPa 0,0 l/m 24,3 km/h (4 Bft) W-NW 290 0 min 0 W/m 11,5 C 5,9 C 24,3 km/h (4 Bft)
01.11.2007 12:32 13,0 C 91 % 1025,5 hPa 0,0 l/m 27,1 km/h (5 Bft) W 270 0 min 0 W/m 11,6 C 5,4 C 27,1 km/h (5 Bft)
01.11.2007 12:37 13,0 C 91 % 1025,5 hPa 0,0 l/m 16,1 km/h (3 Bft) W-NW 285 0 min 0 W/m 11,6 C 8,4 C 16,1 km/h (3 Bft)
01.11.2007 12:42 13,0 C 91 % 1025,5 hPa 0,0 l/m 20,6 km/h (4 Bft) W 280 0 min 0 W/m 11,6 C 7,0 C 20,6 km/h (4 Bft)
01.11.2007 12:47 13,0 C 91 % 1025,5 hPa 0,0 l/m 24,0 km/h (4 Bft) W-NW 285 0 min 0 W/m 11,6 C 6,1 C 24,0 km/h (4 Bft)
01.11.2007 12:52 13,0 C 91 % 1025,5 hPa 0,0 l/m 24,1 km/h (4 Bft) W 275 0 min 0 W/m 11,6 C 6,1 C 24,1 km/h (4 Bft)
01.11.2007 12:57 13,0 C 91 % 1025,5 hPa 0,0 l/m 20,8 km/h (4 Bft) W 275 0 min 0 W/m 11,6 C 6,9 C 20,8 km/h (4 Bft)
01.11.2007 13:02 13,1 C 91 % 1025,5 hPa 0,0 l/m 24,5 km/h (4 Bft) W 280 0 min 0 W/m 11,7 C 6,1 C 24,5 km/h (4 Bft)
01.11.2007 13:07 13,1 C 91 % 1025,5 hPa 0,0 l/m 23,1 km/h (4 Bft) W 275 0 min 0 W/m 11,7 C 6,5 C 23,1 km/h (4 Bft)
01.11.2007 13:12 13,1 C 91 % 1025,5 hPa 0,0 l/m 20,9 km/h (4 Bft) W 260 0 min 0 W/m 11,7 C 7,0 C 20,9 km/h (4 Bft)
01.11.2007 13:17 13,2 C 91 % 1025,5 hPa 0,0 l/m 21,5 km/h (4 Bft) W 270 0 min 0 W/m 11,8 C 7,0 C 21,5 km/h (4 Bft)
01.11.2007 13:22 13,2 C 91 % 1025,5 hPa 0,0 l/m 27,8 km/h (5 Bft) W 275 0 min 0 W/m 11,8 C 5,6 C 27,8 km/h (5 Bft)
01.11.2007 13:27 13,2 C 91 % 1025,5 hPa 0,0 l/m 20,4 km/h (4 Bft) W-NW 285 0 min 0 W/m 11,8 C 7,3 C 20,4 km/h (4 Bft)
01.11.2007 13:32 13,3 C 90 % 1025,5 hPa 0,0 l/m 30,8 km/h (5 Bft) W 270 0 min 0 W/m 11,7 C 5,2 C 30,8 km/h (5 Bft)
01.11.2007 13:37 13,3 C 89 % 1025,5 hPa 0,0 l/m 23,5 km/h (4 Bft) W 275 0 min 0 W/m 11,5 C 6,6 C 23,5 km/h (4 Bft)
01.11.2007 13:42 13,3 C 89 % 1025,5 hPa 0,0 l/m 25,5 km/h (4 Bft) W-NW 295 0 min 0 W/m 11,5 C 6,2 C 25,5 km/h (4 Bft)
01.11.2007 13:47 13,4 C 89 % 1024,5 hPa 0,0 l/m 20,8 km/h (4 Bft) W-NW 290 0 min 0 W/m 11,6 C 7,5 C 20,8 km/h (4 Bft)
01.11.2007 13:52 13,4 C 89 % 1024,5 hPa 0,0 l/m 27,5 km/h (5 Bft) W 265 0 min 0 W/m 11,6 C 5,9 C 27,5 km/h (5 Bft)
01.11.2007 13:57 13,6 C 89 % 1024,5 hPa 0,0 l/m 25,9 km/h (4 Bft) W 275 0 min 0 W/m 11,8 C 6,5 C 25,9 km/h (4 Bft)
01.11.2007 14:02 13,5 C 88 % 1024,5 hPa 0,0 l/m 25,9 km/h (4 Bft) W 275 0 min 0 W/m 11,6 C 6,4 C 25,9 km/h (4 Bft)
01.11.2007 14:07 13,4 C 88 % 1024,5 hPa 0,0 l/m 20,8 km/h (4 Bft) W 275 0 min 0 W/m 11,5 C 7,5 C 20,8 km/h (4 Bft)
01.11.2007 14:12 13,3 C 89 % 1025,5 hPa 0,0 l/m 21,4 km/h (4 Bft) W 280 0 min 0 W/m 11,5 C 7,2 C 21,4 km/h (4 Bft)
01.11.2007 14:17 13,3 C 89 % 1025,5 hPa 0,0 l/m 22,3 km/h (4 Bft) W 275 0 min 0 W/m 11,5 C 6,9 C 22,3 km/h (4 Bft)
01.11.2007 14:22 13,2 C 89 % 1025,5 hPa 0,0 l/m 18,7 km/h (3 Bft) W 275 0 min 0 W/m 11,4 C 7,8 C 18,7 km/h (3 Bft)
01.11.2007 14:27 13,0 C 90 % 1025,5 hPa 0,0 l/m 15,3 km/h (3 Bft) W-NW 290 0 min 0 W/m 11,4 C 8,7 C 15,3 km/h (3 Bft)
01.11.2007 14:32 13,0 C 90 % 1025,5 hPa 0,0 l/m 22,3 km/h (4 Bft) W-NW 290 0 min 0 W/m 11,4 C 6,5 C 22,3 km/h (4 Bft)
01.11.2007 14:37 13,0 C 90 % 1025,5 hPa 0,0 l/m 22,2 km/h (4 Bft) W-NW 285 0 min 0 W/m 11,4 C 6,6 C 22,2 km/h (4 Bft)
01.11.2007 14:42 12,9 C 90 % 1025,5 hPa 0,0 l/m 20,6 km/h (4 Bft) W 280 0 min 0 W/m 11,3 C 6,9 C 20,6 km/h (4 Bft)
01.11.2007 14:47 12,9 C 90 % 1025,5 hPa 0,0 l/m 28,8 km/h (5 Bft) W 270 0 min 0 W/m 11,3 C 5,0 C 28,8 km/h (5 Bft)
01.11.2007 14:52 12,9 C 90 % 1025,5 hPa 0,0 l/m 22,8 km/h (4 Bft) W-NW 290 0 min 0 W/m 11,3 C 6,3 C 22,8 km/h (4 Bft)
01.11.2007 14:57 12,8 C 91 % 1025,5 hPa 0,0 l/m 22,7 km/h (4 Bft) W 275 0 min 0 W/m 11,4 C 6,2 C 22,7 km/h (4 Bft)
01.11.2007 15:02 12,9 C 91 % 1025,5 hPa 0,0 l/m 21,8 km/h (4 Bft) W-NW 295 0 min 0 W/m 11,5 C 6,5 C 21,8 km/h (4 Bft)
01.11.2007 15:07 12,8 C 91 % 1025,5 hPa 0,0 l/m 20,1 km/h (4 Bft) W 275 0 min 0 W/m 11,4 C 6,9 C 20,1 km/h (4 Bft)
01.11.2007 15:12 12,8 C 91 % 1025,5 hPa 0,0 l/m 21,8 km/h (4 Bft) W 280 0 min 0 W/m 11,4 C 6,4 C 21,8 km/h (4 Bft)
01.11.2007 15:17 12,8 C 91 % 1025,5 hPa 0,0 l/m 22,0 km/h (4 Bft) W-NW 285 0 min 0 W/m 11,4 C 6,4 C 22,0 km/h (4 Bft)
01.11.2007 15:22 12,8 C 91 % 1025,5 hPa 0,0 l/m 22,0 km/h (4 Bft) W-NW 285 0 min 0 W/m 11,4 C 6,4 C 22,0 km/h (4 Bft)
01.11.2007 15:27 12,8 C 91 % 1025,5 hPa 0,0 l/m 23,1 km/h (4 Bft) W 275 0 min 0 W/m 11,4 C 6,1 C 23,1 km/h (4 Bft)
01.11.2007 15:32 12,7 C 91 % 1025,5 hPa 0,0 l/m 20,6 km/h (4 Bft) W-NW 285 0 min 0 W/m 11,3 C 6,6 C 20,6 km/h (4 Bft)
01.11.2007 15:37 12,7 C 91 % 1025,5 hPa 0,0 l/m 24,9 km/h (4 Bft) W 270 0 min 0 W/m 11,3 C 5,5 C 24,9 km/h (4 Bft)
01.11.2007 15:42 12,7 C 91 % 1025,5 hPa 0,0 l/m 23,6 km/h (4 Bft) W-NW 290 0 min 0 W/m 11,3 C 5,8 C 23,6 km/h (4 Bft)
01.11.2007 15:47 12,6 C 91 % 1025,5 hPa 0,0 l/m 18,5 km/h (3 Bft) W 280 0 min 0 W/m 11,2 C 7,1 C 18,5 km/h (3 Bft)
01.11.2007 15:52 12,7 C 92 % 1025,5 hPa 0,0 l/m 22,0 km/h (4 Bft) W 270 0 min 0 W/m 11,4 C 6,2 C 22,0 km/h (4 Bft)
01.11.2007 15:57 12,7 C 92 % 1025,5 hPa 0,0 l/m 19,5 km/h (3 Bft) W-NW 290 0 min 0 W/m 11,4 C 6,9 C 19,5 km/h (3 Bft)
01.11.2007 16:02 12,6 C 92 % 1025,5 hPa 0,0 l/m 23,7 km/h (4 Bft) W 280 0 min 0 W/m 11,3 C 5,7 C 23,7 km/h (4 Bft)
01.11.2007 16:07 12,7 C 92 % 1025,5 hPa 0,0 l/m 20,0 km/h (4 Bft) W-NW 285 0 min 0 W/m 11,4 C 6,8 C 20,0 km/h (4 Bft)
01.11.2007 16:12 12,6 C 92 % 1025,5 hPa 0,0 l/m 18,1 km/h (3 Bft) W-NW 290 0 min 0 W/m 11,3 C 7,2 C 18,1 km/h (3 Bft)
01.11.2007 16:17 12,6 C 93 % 1025,5 hPa 0,0 l/m 15,8 km/h (3 Bft) W 280 0 min 0 W/m 11,5 C 8,0 C 15,8 km/h (3 Bft)
01.11.2007 16:22 12,6 C 93 % 1025,5 hPa 0,0 l/m 18,2 km/h (3 Bft) W-NW 285 0 min 0 W/m 11,5 C 7,2 C 18,2 km/h (3 Bft)
01.11.2007 16:27 12,6 C 93 % 1025,5 hPa 0,0 l/m 19,7 km/h (3 Bft) W-NW 285 0 min 0 W/m 11,5 C 6,7 C 19,7 km/h (3 Bft)
01.11.2007 16:32 12,6 C 93 % 1025,5 hPa 0,0 l/m 19,0 km/h (3 Bft) W 280 0 min 0 W/m 11,5 C 6,9 C 19,0 km/h (3 Bft)
01.11.2007 16:37 12,5 C 93 % 1025,5 hPa 0,0 l/m 20,3 km/h (4 Bft) W-NW 285 0 min 0 W/m 11,4 C 6,4 C 20,3 km/h (4 Bft)
01.11.2007 16:42 12,5 C 94 % 1025,5 hPa 0,0 l/m 20,3 km/h (4 Bft) W-NW 285 0 min 0 W/m 11,6 C 6,4 C 20,3 km/h (4 Bft)
01.11.2007 16:47 12,5 C 94 % 1025,5 hPa 0,0 l/m 21,2 km/h (4 Bft) W 265 0 min 0 W/m 11,6 C 6,2 C 21,2 km/h (4 Bft)
01.11.2007 16:52 12,4 C 94 % 1025,5 hPa 0,0 l/m 18,5 km/h (3 Bft) W 275 0 min 0 W/m 11,5 C 6,8 C 18,5 km/h (3 Bft)
01.11.2007 16:57 12,4 C 94 % 1025,5 hPa 0,0 l/m 16,6 km/h (3 Bft) W 275 0 min 0 W/m 11,5 C 7,5 C 16,6 km/h (3 Bft)
01.11.2007 17:02 12,4 C 94 % 1025,5 hPa 0,0 l/m 19,3 km/h (3 Bft) W 280 0 min 0 W/m 11,5 C 6,6 C 19,3 km/h (3 Bft)
01.11.2007 17:07 12,4 C 95 % 1025,5 hPa 0,0 l/m 15,5 km/h (3 Bft) W 275 0 min 0 W/m 11,6 C 7,9 C 15,5 km/h (3 Bft)
01.11.2007 17:12 12,3 C 95 % 1025,5 hPa 0,0 l/m 21,0 km/h (4 Bft) W 275 0 min 0 W/m 11,5 C 6,0 C 21,0 km/h (4 Bft)
01.11.2007 17:17 12,3 C 95 % 1025,5 hPa 0,0 l/m 15,5 km/h (3 Bft) W 275 0 min 0 W/m 11,5 C 7,7 C 15,5 km/h (3 Bft)
01.11.2007 17:22 12,4 C 95 % 1025,5 hPa 0,0 l/m 14,1 km/h (3 Bft) W 280 0 min 0 W/m 11,6 C 8,4 C 14,1 km/h (3 Bft)
01.11.2007 17:27 12,3 C 95 % 1025,5 hPa 0,0 l/m 16,6 km/h (3 Bft) W-NW 285 0 min 0 W/m 11,5 C 7,3 C 16,6 km/h (3 Bft)
01.11.2007 17:32 12,3 C 95 % 1025,5 hPa 0,0 l/m 19,5 km/h (3 Bft) W 275 0 min 0 W/m 11,5 C 6,4 C 19,5 km/h (3 Bft)
01.11.2007 17:37 12,3 C 95 % 1025,5 hPa 0,0 l/m 14,1 km/h (3 Bft) W 275 0 min 0 W/m 11,5 C 8,3 C 14,1 km/h (3 Bft)
01.11.2007 17:42 12,3 C 95 % 1025,5 hPa 0,0 l/m 14,0 km/h (3 Bft) W-NW 290 0 min 0 W/m 11,5 C 8,3 C 14,0 km/h (3 Bft)
01.11.2007 17:47 12,3 C 95 % 1025,5 hPa 0,0 l/m 16,0 km/h (3 Bft) W 280 0 min 0 W/m 11,5 C 7,6 C 16,0 km/h (3 Bft)
01.11.2007 17:52 12,3 C 95 % 1025,5 hPa 0,0 l/m 19,0 km/h (3 Bft) W-NW 290 0 min 0 W/m 11,5 C 6,6 C 19,0 km/h (3 Bft)
01.11.2007 17:57 12,3 C 95 % 1025,5 hPa 0,0 l/m 13,8 km/h (3 Bft) W-NW 285 0 min 0 W/m 11,5 C 8,4 C 13,8 km/h (3 Bft)
01.11.2007 18:02 12,3 C 95 % 1025,5 hPa 0,0 l/m 15,4 km/h (3 Bft) W-NW 300 0 min 0 W/m 11,5 C 7,8 C 15,4 km/h (3 Bft)
01.11.2007 18:07 12,3 C 95 % 1025,5 hPa 0,0 l/m 16,1 km/h (3 Bft) W 280 0 min 0 W/m 11,5 C 7,5 C 16,1 km/h (3 Bft)
01.11.2007 18:12 12,3 C 95 % 1025,5 hPa 0,0 l/m 19,3 km/h (3 Bft) W 270 0 min 0 W/m 11,5 C 6,5 C 19,3 km/h (3 Bft)
01.11.2007 18:17 12,3 C 95 % 1025,5 hPa 0,0 l/m 16,3 km/h (3 Bft) W 280 0 min 0 W/m 11,5 C 7,4 C 16,3 km/h (3 Bft)
01.11.2007 18:22 12,3 C 95 % 1025,5 hPa 0,0 l/m 20,3 km/h (4 Bft) W-NW 285 0 min 0 W/m 11,5 C 6,2 C 20,3 km/h (4 Bft)
01.11.2007 18:27 12,3 C 95 % 1025,5 hPa 0,0 l/m 16,1 km/h (3 Bft) W 275 0 min 0 W/m 11,5 C 7,5 C 16,1 km/h (3 Bft)
01.11.2007 18:32 12,4 C 96 % 1025,5 hPa 0,0 l/m 16,7 km/h (3 Bft) W-NW 290 0 min 0 W/m 11,8 C 7,4 C 16,7 km/h (3 Bft)
01.11.2007 18:37 12,4 C 96 % 1025,5 hPa 0,0 l/m 19,8 km/h (3 Bft) W-NW 300 0 min 0 W/m 11,8 C 6,4 C 19,8 km/h (3 Bft)
01.11.2007 18:42 12,4 C 96 % 1025,5 hPa 0,0 l/m 19,6 km/h (3 Bft) W-NW 295 0 min 0 W/m 11,8 C 6,5 C 19,6 km/h (3 Bft)
01.11.2007 18:47 12,4 C 96 % 1025,5 hPa 0,0 l/m 19,3 km/h (3 Bft) W-NW 300 0 min 0 W/m 11,8 C 6,6 C 19,3 km/h (3 Bft)
01.11.2007 18:52 12,5 C 96 % 1025,5 hPa 0,0 l/m 21,1 km/h (4 Bft) W-NW 300 0 min 0 W/m 11,9 C 6,2 C 21,1 km/h (4 Bft)
01.11.2007 18:57 12,5 C 96 % 1025,5 hPa 0,0 l/m 16,5 km/h (3 Bft) W-NW 295 0 min 0 W/m 11,9 C 7,6 C 16,5 km/h (3 Bft)
01.11.2007 19:02 12,5 C 96 % 1025,5 hPa 0,0 l/m 20,0 km/h (4 Bft) W-NW 295 0 min 0 W/m 11,9 C 6,5 C 20,0 km/h (4 Bft)
01.11.2007 19:07 12,5 C 96 % 1025,5 hPa 0,0 l/m 17,7 km/h (3 Bft) W 280 0 min 0 W/m 11,9 C 7,2 C 17,7 km/h (3 Bft)
01.11.2007 19:12 12,5 C 96 % 1025,5 hPa 0,0 l/m 15,8 km/h (3 Bft) W-NW 290 0 min 0 W/m 11,9 C 7,9 C 15,8 km/h (3 Bft)
01.11.2007 19:17 12,5 C 96 % 1025,5 hPa 0,0 l/m 13,6 km/h (3 Bft) W 275 0 min 0 W/m 11,9 C 8,7 C 13,6 km/h (3 Bft)
01.11.2007 19:22 12,4 C 95 % 1025,5 hPa 0,0 l/m 13,0 km/h (3 Bft) W-NW 285 0 min 0 W/m 11,6 C 8,8 C 13,0 km/h (3 Bft)
01.11.2007 19:27 12,3 C 95 % 1025,5 hPa 0,0 l/m 11,9 km/h (2 Bft) W 275 0 min 0 W/m 11,5 C 9,2 C 11,9 km/h (2 Bft)
01.11.2007 19:32 12,2 C 95 % 1025,5 hPa 0,0 l/m 13,3 km/h (3 Bft) W-NW 285 0 min 0 W/m 11,4 C 8,5 C 13,3 km/h (3 Bft)
01.11.2007 19:37 12,2 C 95 % 1025,5 hPa 0,0 l/m 14,2 km/h (3 Bft) W 265 0 min 0 W/m 11,4 C 8,1 C 14,2 km/h (3 Bft)
01.11.2007 19:42 12,3 C 95 % 1025,5 hPa 0,0 l/m 19,9 km/h (4 Bft) NW 305 0 min 0 W/m 11,5 C 6,3 C 19,9 km/h (4 Bft)
01.11.2007 19:47 12,3 C 95 % 1026,5 hPa 0,0 l/m 19,2 km/h (3 Bft) W-NW 290 0 min 0 W/m 11,5 C 6,5 C 19,2 km/h (3 Bft)
01.11.2007 19:52 12,3 C 95 % 1026,5 hPa 0,0 l/m 16,1 km/h (3 Bft) W-NW 295 0 min 0 W/m 11,5 C 7,5 C 16,1 km/h (3 Bft)
01.11.2007 19:57 12,2 C 95 % 1026,5 hPa 0,0 l/m 14,9 km/h (3 Bft) W 275 0 min 0 W/m 11,4 C 7,8 C 14,9 km/h (3 Bft)
01.11.2007 20:02 12,2 C 95 % 1026,5 hPa 0,0 l/m 16,5 km/h (3 Bft) W 275 0 min 0 W/m 11,4 C 7,3 C 16,5 km/h (3 Bft)
01.11.2007 20:07 12,1 C 95 % 1026,5 hPa 0,0 l/m 12,6 km/h (3 Bft) W 275 0 min 0 W/m 11,3 C 8,7 C 12,6 km/h (3 Bft)
01.11.2007 20:12 12,1 C 95 % 1026,5 hPa 0,0 l/m 16,0 km/h (3 Bft) W 280 0 min 0 W/m 11,3 C 7,3 C 16,0 km/h (3 Bft)
01.11.2007 20:17 12,1 C 95 % 1026,5 hPa 0,0 l/m 16,4 km/h (3 Bft) W 275 0 min 0 W/m 11,3 C 7,2 C 16,4 km/h (3 Bft)
01.11.2007 20:22 12,1 C 95 % 1026,5 hPa 0,0 l/m 15,7 km/h (3 Bft) W 275 0 min 0 W/m 11,3 C 7,4 C 15,7 km/h (3 Bft)
01.11.2007 20:27 12,0 C 95 % 1026,5 hPa 0,0 l/m 13,9 km/h (3 Bft) W 260 0 min 0 W/m 11,2 C 8,0 C 13,9 km/h (3 Bft)
01.11.2007 20:32 12,0 C 95 % 1026,5 hPa 0,0 l/m 13,3 km/h (3 Bft) W 270 0 min 0 W/m 11,2 C 8,2 C 13,3 km/h (3 Bft)
01.11.2007 20:37 12,0 C 95 % 1026,5 hPa 0,0 l/m 12,0 km/h (2 Bft) W 280 0 min 0 W/m 11,2 C 8,8 C 12,0 km/h (2 Bft)
01.11.2007 20:42 12,0 C 96 % 1026,5 hPa 0,0 l/m 13,1 km/h (3 Bft) W 275 0 min 0 W/m 11,4 C 8,3 C 13,1 km/h (3 Bft)
01.11.2007 20:47 12,0 C 96 % 1026,5 hPa 0,0 l/m 12,0 km/h (2 Bft) W 275 0 min 0 W/m 11,4 C 8,8 C 12,0 km/h (2 Bft)
01.11.2007 20:52 12,0 C 96 % 1026,5 hPa 0,0 l/m 19,0 km/h (3 Bft) W 275 0 min 0 W/m 11,4 C 6,2 C 19,0 km/h (3 Bft)
01.11.2007 20:57 12,0 C 96 % 1026,5 hPa 0,0 l/m 21,0 km/h (4 Bft) W 275 0 min 0 W/m 11,4 C 5,6 C 21,0 km/h (4 Bft)
01.11.2007 21:02 12,0 C 96 % 1026,5 hPa 0,0 l/m 16,4 km/h (3 Bft) W 270 0 min 0 W/m 11,4 C 7,0 C 16,4 km/h (3 Bft)
01.11.2007 21:07 12,0 C 96 % 1026,5 hPa 0,0 l/m 13,6 km/h (3 Bft) W 260 0 min 0 W/m 11,4 C 8,1 C 13,6 km/h (3 Bft)
01.11.2007 21:12 12,0 C 96 % 1026,5 hPa 0,0 l/m 14,3 km/h (3 Bft) W 270 0 min 0 W/m 11,4 C 7,8 C 14,3 km/h (3 Bft)
01.11.2007 21:17 11,9 C 96 % 1026,5 hPa 0,0 l/m 12,8 km/h (3 Bft) W 275 0 min 0 W/m 11,3 C 8,3 C 12,8 km/h (3 Bft)
01.11.2007 21:22 11,9 C 96 % 1026,5 hPa 0,0 l/m 13,0 km/h (3 Bft) W 270 0 min 0 W/m 11,3 C 8,3 C 13,0 km/h (3 Bft)
01.11.2007 21:27 11,9 C 96 % 1026,5 hPa 0,0 l/m 12,0 km/h (2 Bft) W 270 0 min 0 W/m 11,3 C 8,7 C 12,0 km/h (2 Bft)
01.11.2007 21:32 11,9 C 96 % 1026,5 hPa 0,0 l/m 10,8 km/h (2 Bft) W 265 0 min 0 W/m 11,3 C 9,3 C 10,8 km/h (2 Bft)
01.11.2007 21:37 11,9 C 96 % 1026,5 hPa 0,0 l/m 10,2 km/h (2 Bft) W-NW 285 0 min 0 W/m 11,3 C 9,6 C 10,2 km/h (2 Bft)
01.11.2007 21:42 11,9 C 96 % 1026,5 hPa 0,0 l/m 14,8 km/h (3 Bft) W-NW 290 0 min 0 W/m 11,3 C 7,5 C 14,8 km/h (3 Bft)
01.11.2007 21:47 12,0 C 96 % 1026,5 hPa 0,0 l/m 13,5 km/h (3 Bft) W 270 0 min 0 W/m 11,4 C 8,2 C 13,5 km/h (3 Bft)
01.11.2007 21:52 12,0 C 96 % 1026,5 hPa 0,0 l/m 13,4 km/h (3 Bft) W-NW 285 0 min 0 W/m 11,4 C 8,2 C 13,4 km/h (3 Bft)
01.11.2007 21:57 12,0 C 96 % 1026,5 hPa 0,0 l/m 15,2 km/h (3 Bft) W 260 0 min 0 W/m 11,4 C 7,5 C 15,2 km/h (3 Bft)
01.11.2007 22:02 11,9 C 96 % 1026,5 hPa 0,0 l/m 12,5 km/h (2 Bft) W 270 0 min 0 W/m 11,3 C 8,5 C 12,5 km/h (2 Bft)
01.11.2007 22:07 11,9 C 96 % 1026,5 hPa 0,0 l/m 13,7 km/h (3 Bft) W 280 0 min 0 W/m 11,3 C 8,0 C 13,7 km/h (3 Bft)
01.11.2007 22:12 11,9 C 96 % 1026,5 hPa 0,0 l/m 14,8 km/h (3 Bft) W 280 0 min 0 W/m 11,3 C 7,5 C 14,8 km/h (3 Bft)
01.11.2007 22:17 11,9 C 96 % 1026,5 hPa 0,0 l/m 13,8 km/h (3 Bft) W 270 0 min 0 W/m 11,3 C 7,9 C 13,8 km/h (3 Bft)
01.11.2007 22:22 11,9 C 96 % 1026,5 hPa 0,0 l/m 13,7 km/h (3 Bft) W-NW 295 0 min 0 W/m 11,3 C 8,0 C 13,7 km/h (3 Bft)
01.11.2007 22:27 11,9 C 97 % 1026,5 hPa 0,0 l/m 15,1 km/h (3 Bft) W-NW 295 0 min 0 W/m 11,4 C 7,4 C 15,1 km/h (3 Bft)
01.11.2007 22:32 11,9 C 97 % 1026,5 hPa 0,0 l/m 12,8 km/h (3 Bft) W 275 0 min 0 W/m 11,4 C 8,3 C 12,8 km/h (3 Bft)
01.11.2007 22:37 12,0 C 97 % 1026,5 hPa 0,0 l/m 13,1 km/h (3 Bft) W 260 0 min 0 W/m 11,5 C 8,3 C 13,1 km/h (3 Bft)
01.11.2007 22:42 12,0 C 97 % 1026,5 hPa 0,0 l/m 17,1 km/h (3 Bft) W-NW 290 0 min 0 W/m 11,5 C 6,8 C 17,1 km/h (3 Bft)
01.11.2007 22:47 11,9 C 97 % 1026,5 hPa 0,0 l/m 16,7 km/h (3 Bft) W-NW 290 0 min 0 W/m 11,4 C 6,8 C 16,7 km/h (3 Bft)
01.11.2007 22:52 11,9 C 97 % 1026,5 hPa 0,0 l/m 16,5 km/h (3 Bft) W-NW 285 0 min 0 W/m 11,4 C 6,9 C 16,5 km/h (3 Bft)
01.11.2007 22:57 11,9 C 97 % 1026,5 hPa 0,0 l/m 13,9 km/h (3 Bft) W 280 0 min 0 W/m 11,4 C 7,9 C 13,9 km/h (3 Bft)
01.11.2007 23:02 11,9 C 97 % 1026,5 hPa 0,0 l/m 13,0 km/h (3 Bft) W-NW 295 0 min 0 W/m 11,4 C 8,3 C 13,0 km/h (3 Bft)
01.11.2007 23:07 11,9 C 97 % 1026,5 hPa 0,0 l/m 16,4 km/h (3 Bft) W-NW 290 0 min 0 W/m 11,4 C 6,9 C 16,4 km/h (3 Bft)
01.11.2007 23:12 11,9 C 97 % 1026,5 hPa 0,0 l/m 14,4 km/h (3 Bft) W-NW 285 0 min 0 W/m 11,4 C 7,7 C 14,4 km/h (3 Bft)
01.11.2007 23:17 11,9 C 97 % 1026,5 hPa 0,0 l/m 13,9 km/h (3 Bft) W-NW 285 0 min 0 W/m 11,4 C 7,9 C 13,9 km/h (3 Bft)
01.11.2007 23:22 11,9 C 97 % 1026,5 hPa 0,0 l/m 17,0 km/h (3 Bft) W-NW 285 0 min 0 W/m 11,4 C 6,7 C 17,0 km/h (3 Bft)
01.11.2007 23:27 11,9 C 97 % 1026,5 hPa 0,0 l/m 16,8 km/h (3 Bft) W 275 0 min 0 W/m 11,4 C 6,8 C 16,8 km/h (3 Bft)
01.11.2007 23:32 11,9 C 97 % 1026,5 hPa 0,0 l/m 14,8 km/h (3 Bft) W 265 0 min 0 W/m 11,4 C 7,5 C 14,8 km/h (3 Bft)
01.11.2007 23:37 11,8 C 97 % 1026,5 hPa 0,0 l/m 18,3 km/h (3 Bft) W 275 0 min 0 W/m 11,3 C 6,1 C 18,3 km/h (3 Bft)
01.11.2007 23:42 11,8 C 98 % 1026,5 hPa 0,0 l/m 13,8 km/h (3 Bft) W-NW 285 0 min 0 W/m 11,5 C 7,8 C 13,8 km/h (3 Bft)
01.11.2007 23:47 11,9 C 98 % 1026,5 hPa 0,0 l/m 10,6 km/h (2 Bft) W 275 0 min 0 W/m 11,6 C 9,4 C 10,6 km/h (2 Bft)
01.11.2007 23:52 11,9 C 98 % 1026,5 hPa 0,0 l/m 13,5 km/h (3 Bft) W 270 0 min 0 W/m 11,6 C 8,0 C 13,5 km/h (3 Bft)
01.11.2007 23:57 11,9 C 98 % 1026,5 hPa 0,0 l/m 11,3 km/h (2 Bft) W 275 0 min 0 W/m 11,6 C 9,0 C 11,3 km/h (2 Bft)
_ Min-Zeit 02:07 14:02 00:52 - 21:37 - - - - 02:07 02:22 21:37
Minimum _ 10,9 C 88 % 1024,5 hPa - 10,2 km/h (2 Bft) - - - - 9,8 C 1,9 C 10,2 km/h (2 Bft)
_ Max-Zeit 13:57 23:42 19:47 00:02 07:27 - - 00:02 00:02 18:52 21:37 07:27
Maximum _ 13,6 C 98 % 1026,5 hPa 0,0 l/m 33,5 km/h
W (5 Bft)
- - 0 min 0 W/m 11,9 C 9,6 C 33,5 km/h
W (5 Bft)
Durchschnitt _ 12,1 C 92 % 1025,3 hPa #0,0 l/m 22,4 km/h (4 Bft) W - #0 min. 0 W/m 10,9 C 5,6 C 22,4 km/h (4 Bft)
copyright by Holger Just